createdAt,value
2022-12-01T00:01:10.167Z,4.90
2022-12-01T00:03:37.609Z,4.90
2022-12-01T00:06:05.499Z,5.00
2022-12-01T00:08:33.288Z,4.80
2022-12-01T00:11:07.786Z,4.90
2022-12-01T00:13:35.549Z,4.80
2022-12-01T00:16:14.960Z,4.80
2022-12-01T00:19:37.919Z,4.80
2022-12-01T00:22:04.570Z,4.70
2022-12-01T00:24:31.284Z,4.80
2022-12-01T00:26:57.935Z,5.00
2022-12-01T00:29:24.693Z,4.90
2022-12-01T00:31:51.458Z,4.80
2022-12-01T00:34:23.838Z,4.90
2022-12-01T00:36:50.727Z,4.70
2022-12-01T00:39:17.505Z,4.70
2022-12-01T00:41:44.180Z,4.70
2022-12-01T00:44:11.018Z,4.70
2022-12-01T00:46:37.635Z,4.80
2022-12-01T00:49:04.354Z,4.80
2022-12-01T00:51:31.073Z,4.70
2022-12-01T00:53:57.779Z,4.70
2022-12-01T00:56:24.515Z,4.70
2022-12-01T00:58:51.155Z,4.70
2022-12-01T01:01:17.794Z,4.70
2022-12-01T01:03:44.573Z,4.60
2022-12-01T01:06:12.982Z,4.60
2022-12-01T01:08:40.305Z,4.60
2022-12-01T01:11:08.696Z,4.40
2022-12-01T01:13:36.325Z,4.60
2022-12-01T01:16:05.981Z,4.60
2022-12-01T01:18:33.176Z,4.60
2022-12-01T01:21:05.771Z,4.80
2022-12-01T01:23:32.907Z,4.80
2022-12-01T01:26:08.738Z,4.70
2022-12-01T01:28:36.556Z,4.70
2022-12-01T01:31:12.686Z,4.50
2022-12-01T01:33:39.554Z,4.60
2022-12-01T01:36:07.008Z,4.50
2022-12-01T01:38:34.411Z,4.70
2022-12-01T01:41:01.914Z,4.80
2022-12-01T01:43:48.814Z,4.70
2022-12-01T01:46:21.116Z,4.60
2022-12-01T01:48:55.908Z,4.70
2022-12-01T01:51:35.283Z,4.70
2022-12-01T01:54:05.928Z,4.70
2022-12-01T01:56:33.418Z,4.70
2022-12-01T01:59:00.714Z,4.80
2022-12-01T02:01:27.493Z,4.80
2022-12-01T02:03:54.832Z,4.80
2022-12-01T02:06:23.561Z,4.80
2022-12-01T02:08:50.561Z,4.80
2022-12-01T02:11:36.348Z,4.80
2022-12-01T02:14:13.883Z,4.80
2022-12-01T02:17:05.905Z,4.80
2022-12-01T02:20:00.281Z,4.80
2022-12-01T02:22:26.981Z,4.70
2022-12-01T02:25:20.586Z,4.70
2022-12-01T02:28:13.380Z,4.70
2022-12-01T02:30:52.857Z,4.70
2022-12-01T02:33:37.404Z,4.70
2022-12-01T02:36:34.459Z,4.70
2022-12-01T02:39:09.810Z,4.70
2022-12-01T02:41:56.146Z,4.50
2022-12-01T02:44:40.078Z,4.40
2022-12-01T02:47:15.767Z,4.40
2022-12-01T02:49:48.543Z,4.50
2022-12-01T02:52:16.690Z,4.60
2022-12-01T02:54:45.621Z,4.60
2022-12-01T02:57:14.147Z,4.40
2022-12-01T02:59:49.090Z,4.60
2022-12-01T03:02:43.435Z,4.60
2022-12-01T03:05:22.388Z,4.80
2022-12-01T03:08:13.691Z,4.70
2022-12-01T03:10:57.787Z,4.50
2022-12-01T03:13:53.814Z,4.60
2022-12-01T03:16:41.041Z,4.60
2022-12-01T03:19:14.408Z,4.70
2022-12-01T03:22:30.247Z,4.70
2022-12-01T03:24:59.648Z,4.70
2022-12-01T03:27:30.126Z,4.60
2022-12-01T03:29:59.752Z,4.60
2022-12-01T03:32:49.953Z,4.40
2022-12-01T03:35:39.503Z,4.40
2022-12-01T03:38:16.298Z,4.50
2022-12-01T03:40:45.948Z,4.50
2022-12-01T03:43:18.771Z,4.50
2022-12-01T03:46:12.224Z,4.60
2022-12-01T03:48:40.372Z,4.50
2022-12-01T03:51:44.776Z,4.50
2022-12-01T03:54:23.070Z,4.50
2022-12-01T03:56:59.494Z,4.60
2022-12-01T03:59:27.531Z,4.50
2022-12-01T04:01:54.390Z,4.40
2022-12-01T04:04:21.853Z,4.50
2022-12-01T04:06:50.629Z,4.40
2022-12-01T04:09:17.982Z,4.50
2022-12-01T04:12:03.862Z,4.50
2022-12-01T04:14:30.550Z,4.50
2022-12-01T04:16:57.336Z,4.60
2022-12-01T04:19:24.052Z,4.50
2022-12-01T04:21:50.685Z,4.60
2022-12-01T04:24:17.346Z,4.60
2022-12-01T04:26:46.021Z,4.60
2022-12-01T04:29:13.571Z,4.60
2022-12-01T04:31:40.647Z,4.60
2022-12-01T04:34:07.908Z,4.60
2022-12-01T04:36:35.316Z,4.60
2022-12-01T04:39:03.193Z,4.60
2022-12-01T04:41:30.160Z,4.50
2022-12-01T04:43:56.887Z,4.60
2022-12-01T04:46:24.597Z,4.60
2022-12-01T04:48:51.909Z,4.60
2022-12-01T04:51:19.168Z,4.50
2022-12-01T04:53:45.796Z,4.50
2022-12-01T04:56:12.468Z,4.60
2022-12-01T04:58:40.098Z,4.60
2022-12-01T05:01:12.745Z,4.60
2022-12-01T05:03:41.201Z,4.60
2022-12-01T05:06:13.429Z,4.60
2022-12-01T05:08:40.681Z,4.70
2022-12-01T05:11:08.499Z,4.60
2022-12-01T05:13:41.048Z,4.60
2022-12-01T05:16:10.360Z,4.60
2022-12-01T05:18:37.512Z,4.60
2022-12-01T05:21:05.624Z,4.50
2022-12-01T05:23:34.401Z,4.50
2022-12-01T05:26:01.958Z,4.60
2022-12-01T05:28:28.750Z,4.50
2022-12-01T05:30:55.835Z,4.50
2022-12-01T05:33:24.034Z,4.50
2022-12-01T05:35:51.386Z,4.50
2022-12-01T05:38:18.702Z,4.50
2022-12-01T05:40:55.667Z,4.50
2022-12-01T05:43:28.581Z,4.50
2022-12-01T05:45:57.751Z,4.40
2022-12-01T05:48:25.206Z,4.30
2022-12-01T05:50:51.866Z,4.40
2022-12-01T05:53:18.984Z,4.50
2022-12-01T05:55:45.866Z,4.50
2022-12-01T05:58:12.663Z,4.50
2022-12-01T06:00:45.429Z,4.40
2022-12-01T06:03:13.074Z,4.40
2022-12-01T06:05:40.307Z,4.30
2022-12-01T06:08:07.087Z,4.40
2022-12-01T06:10:33.708Z,4.40
2022-12-01T06:13:00.378Z,4.30
2022-12-01T06:15:27.438Z,4.30
2022-12-01T06:17:54.334Z,4.30
2022-12-01T06:20:21.145Z,4.40
2022-12-01T06:22:48.198Z,4.30
2022-12-01T06:25:15.047Z,4.50
2022-12-01T06:27:41.718Z,4.30
2022-12-01T06:30:09.165Z,4.40
2022-12-01T06:32:36.521Z,4.50
2022-12-01T06:35:03.296Z,4.50
2022-12-01T06:37:29.953Z,4.50
2022-12-01T06:39:56.672Z,4.30
2022-12-01T06:42:23.463Z,4.40
2022-12-01T06:44:50.206Z,4.40
2022-12-01T06:47:16.915Z,4.40
2022-12-01T06:49:44.058Z,4.40
2022-12-01T06:52:10.736Z,4.40
2022-12-01T06:54:37.640Z,4.50
2022-12-01T06:57:04.789Z,4.30
2022-12-01T06:59:31.727Z,4.40
2022-12-01T07:01:58.954Z,4.40
2022-12-01T07:04:26.869Z,4.30
2022-12-01T07:06:53.510Z,4.50
2022-12-01T07:09:20.326Z,4.60
2022-12-01T07:11:47.003Z,4.50
2022-12-01T07:14:22.047Z,4.40
2022-12-01T07:16:48.758Z,4.50
2022-12-01T07:19:15.463Z,4.50
2022-12-01T07:21:42.219Z,4.50
2022-12-01T07:24:09.118Z,4.60
2022-12-01T07:26:35.949Z,4.60
2022-12-01T07:29:02.666Z,4.50
2022-12-01T07:31:29.334Z,4.40
2022-12-01T07:33:56.220Z,4.50
2022-12-01T07:36:22.859Z,4.50
2022-12-01T07:38:49.532Z,4.50
2022-12-01T07:41:20.938Z,4.60
2022-12-01T07:43:48.542Z,4.70
2022-12-01T07:46:22.710Z,4.70
2022-12-01T07:48:51.519Z,4.70
2022-12-01T07:51:18.467Z,4.60
2022-12-01T07:53:47.129Z,4.60
2022-12-01T07:56:13.852Z,4.60
2022-12-01T07:58:40.675Z,4.70
2022-12-01T08:01:10.674Z,4.60
2022-12-01T08:03:37.622Z,4.70
2022-12-01T08:06:05.442Z,4.60
2022-12-01T08:08:33.942Z,4.70
2022-12-01T08:11:04.703Z,4.70
2022-12-01T08:13:31.919Z,4.70
2022-12-01T08:15:58.742Z,4.70
2022-12-01T08:18:25.509Z,4.70
2022-12-01T08:20:56.058Z,4.80
2022-12-01T08:23:22.682Z,4.90
2022-12-01T08:25:49.419Z,4.90
2022-12-01T08:28:16.066Z,4.90
2022-12-01T08:30:42.706Z,4.80
2022-12-01T08:36:56.768Z,5.00
2022-12-01T08:39:23.435Z,5.10
2022-12-01T08:41:50.068Z,5.10
2022-12-01T08:44:16.938Z,5.10
2022-12-01T08:46:43.693Z,5.10
2022-12-01T08:49:10.487Z,5.10
2022-12-01T08:51:37.206Z,5.10
2022-12-01T08:54:04.115Z,5.20
2022-12-01T08:56:40.608Z,5.20
2022-12-01T08:59:08.102Z,5.20
2022-12-01T09:01:35.807Z,5.20
2022-12-01T09:04:06.698Z,5.20
2022-12-01T09:06:39.518Z,5.10
2022-12-01T09:09:06.731Z,5.20
2022-12-01T09:11:33.640Z,5.10
2022-12-01T09:14:00.679Z,5.20
2022-12-01T09:16:27.681Z,5.40
2022-12-01T09:18:55.317Z,5.40
2022-12-01T09:21:25.183Z,5.40
2022-12-01T09:23:51.878Z,5.50
2022-12-01T09:26:19.662Z,5.60
2022-12-01T09:28:47.655Z,5.60
2022-12-01T09:31:16.344Z,5.50
2022-12-01T09:33:43.056Z,5.60
2022-12-01T09:36:10.555Z,5.60
2022-12-01T09:38:38.124Z,5.60
2022-12-01T09:41:16.237Z,5.60
2022-12-01T09:44:14.366Z,5.70
2022-12-01T09:46:49.099Z,5.90
2022-12-01T09:49:23.788Z,6.10
2022-12-01T09:51:52.670Z,6.20
2022-12-01T09:54:19.394Z,6.40
2022-12-01T09:56:53.063Z,6.40
2022-12-01T09:59:31.258Z,6.30
2022-12-01T10:02:02.689Z,6.20
2022-12-01T10:04:39.728Z,6.10
2022-12-01T10:07:17.751Z,6.30
2022-12-01T10:09:55.877Z,6.20
2022-12-01T10:12:27.639Z,6.30
2022-12-01T10:15:11.004Z,6.20
2022-12-01T10:17:55.777Z,6.10
2022-12-01T10:20:36.652Z,6.00
2022-12-01T10:23:32.101Z,5.90
2022-12-01T10:26:05.251Z,6.00
2022-12-01T10:28:37.753Z,6.20
2022-12-01T10:31:23.350Z,6.30
2022-12-01T10:34:15.829Z,6.10
2022-12-01T10:36:42.596Z,6.10
2022-12-01T10:39:29.650Z,6.20
2022-12-01T10:42:04.335Z,6.20
2022-12-01T10:44:31.212Z,6.30
2022-12-01T10:46:57.848Z,6.30
2022-12-01T10:49:37.379Z,6.30
2022-12-01T10:52:04.589Z,6.30
2022-12-01T10:54:38.084Z,6.50
2022-12-01T10:57:07.265Z,6.70
2022-12-01T10:59:36.215Z,7.00
2022-12-01T11:02:05.567Z,6.90
2022-12-01T11:04:45.362Z,7.20
2022-12-01T11:07:22.876Z,7.50
2022-12-01T11:10:16.880Z,7.60
2022-12-01T11:13:15.722Z,7.50
2022-12-01T11:15:55.014Z,7.40
2022-12-01T11:18:21.626Z,7.20
2022-12-01T11:21:03.956Z,7.20
2022-12-01T11:23:30.728Z,7.30
2022-12-01T11:26:05.775Z,7.20
2022-12-01T11:28:34.738Z,7.10
2022-12-01T11:31:08.584Z,7.00
2022-12-01T11:33:50.020Z,7.10
2022-12-01T11:36:34.671Z,7.20
2022-12-01T11:39:02.592Z,7.00
2022-12-01T11:41:37.105Z,7.00
2022-12-01T11:44:17.203Z,7.10
2022-12-01T11:47:07.828Z,7.00
2022-12-01T11:49:46.903Z,7.00
2022-12-01T11:52:30.072Z,7.20
2022-12-01T11:55:13.297Z,7.20
2022-12-01T11:57:43.812Z,7.20
2022-12-01T12:00:29.139Z,7.20
2022-12-01T12:03:20.236Z,7.10
2022-12-01T12:09:40.303Z,7.10
2022-12-01T12:12:29.389Z,7.20
2022-12-01T12:15:11.719Z,7.10
2022-12-01T12:18:02.207Z,7.00
2022-12-01T12:20:57.369Z,7.00
2022-12-01T12:23:41.465Z,7.40
2022-12-01T12:26:12.964Z,7.90
2022-12-01T12:28:54.489Z,8.00
2022-12-01T12:32:03.896Z,7.90
2022-12-01T12:34:39.791Z,7.60
2022-12-01T12:37:10.865Z,7.30
2022-12-01T12:40:00.555Z,7.40
2022-12-01T12:42:39.249Z,7.40
2022-12-01T12:45:16.503Z,7.10
2022-12-01T12:47:52.653Z,7.20
2022-12-01T12:50:48.091Z,7.30
2022-12-01T12:53:22.765Z,7.20
2022-12-01T12:55:53.272Z,7.20
2022-12-01T12:58:27.748Z,7.00
2022-12-01T13:01:03.567Z,7.10
2022-12-01T13:03:48.934Z,7.10
2022-12-01T13:06:24.512Z,6.90
2022-12-01T13:08:57.005Z,6.90
2022-12-01T13:11:35.999Z,7.00
2022-12-01T13:14:37.368Z,7.00
2022-12-01T13:17:27.912Z,7.10
2022-12-01T13:19:54.590Z,7.10
2022-12-01T13:22:28.439Z,7.10
2022-12-01T13:24:55.213Z,6.80
2022-12-01T13:27:25.471Z,6.90
2022-12-01T13:29:54.178Z,6.90
2022-12-01T13:32:40.773Z,6.90
2022-12-01T13:35:25.105Z,6.80
2022-12-01T13:37:52.209Z,6.80
2022-12-01T13:40:29.065Z,6.90
2022-12-01T13:43:15.533Z,6.90
2022-12-01T13:45:42.445Z,6.90
2022-12-01T13:48:37.377Z,6.90
2022-12-01T13:51:04.958Z,6.70
2022-12-01T13:53:38.723Z,6.80
2022-12-01T13:56:17.639Z,6.80
2022-12-01T13:58:52.610Z,6.90
2022-12-01T14:01:22.809Z,6.90
2022-12-01T14:04:20.623Z,6.80
2022-12-01T14:06:49.983Z,6.90
2022-12-01T14:09:39.315Z,6.80
2022-12-01T14:12:17.759Z,6.80
2022-12-01T14:15:00.025Z,6.80
2022-12-01T14:17:32.161Z,6.80
2022-12-01T14:20:27.619Z,6.80
2022-12-01T14:23:09.101Z,6.80
2022-12-01T14:25:35.797Z,6.60
2022-12-01T14:28:04.155Z,6.80
2022-12-01T14:30:40.028Z,6.80
2022-12-01T14:33:37.548Z,6.80
2022-12-01T14:36:08.889Z,6.80
2022-12-01T14:38:36.349Z,6.80
2022-12-01T14:41:09.327Z,6.80
2022-12-01T14:43:56.719Z,6.80
2022-12-01T14:46:26.090Z,6.80
2022-12-01T14:48:55.057Z,6.80
2022-12-01T14:51:33.185Z,6.80
2022-12-01T14:54:06.319Z,6.70
2022-12-01T14:56:33.935Z,6.70
2022-12-01T14:59:13.586Z,6.60
2022-12-01T15:01:41.104Z,6.70
2022-12-01T15:04:07.909Z,6.60
2022-12-01T15:06:36.707Z,6.60
2022-12-01T15:12:08.728Z,6.60
2022-12-01T15:14:36.657Z,6.60
2022-12-01T15:17:05.568Z,6.60
2022-12-01T15:19:35.606Z,6.60
2022-12-01T15:22:20.333Z,6.70
2022-12-01T15:24:47.224Z,6.70
2022-12-01T15:27:31.904Z,6.70
2022-12-01T15:30:04.208Z,6.60
2022-12-01T15:32:34.434Z,6.60
2022-12-01T15:35:03.507Z,6.70
2022-12-01T15:37:42.272Z,6.60
2022-12-01T15:43:14.771Z,6.70
2022-12-01T15:45:50.747Z,6.50
2022-12-01T15:48:24.875Z,6.30
2022-12-01T15:51:07.525Z,6.30
2022-12-01T15:53:36.951Z,6.40
2022-12-01T15:56:08.502Z,6.30
2022-12-01T15:58:42.200Z,6.20
2022-12-01T16:01:11.316Z,6.30
2022-12-01T16:03:59.060Z,6.30
2022-12-01T16:06:32.939Z,6.10
2022-12-01T16:09:04.235Z,6.20
2022-12-01T16:11:31.241Z,6.10
2022-12-01T16:14:00.195Z,6.10
2022-12-01T16:16:29.373Z,6.10
2022-12-01T16:18:57.606Z,6.20
2022-12-01T16:21:25.561Z,6.20
2022-12-01T16:24:06.061Z,6.10
2022-12-01T16:26:33.763Z,6.10
2022-12-01T16:29:00.482Z,6.10
2022-12-01T16:31:27.491Z,6.10
2022-12-01T16:34:13.919Z,6.00
2022-12-01T16:36:45.414Z,6.00
2022-12-01T16:39:14.061Z,5.80
2022-12-01T16:41:44.634Z,5.70
2022-12-01T16:44:27.985Z,5.60
2022-12-01T16:46:55.601Z,5.70
2022-12-01T16:49:22.690Z,5.80
2022-12-01T16:51:56.123Z,5.60
2022-12-01T16:54:23.489Z,5.60
2022-12-01T16:56:50.952Z,5.60
2022-12-01T16:59:17.699Z,5.50
2022-12-01T17:01:44.408Z,5.30
2022-12-01T17:04:11.120Z,5.50
2022-12-01T17:06:38.443Z,5.30
2022-12-01T17:09:06.017Z,5.30
2022-12-01T17:11:32.962Z,5.20
2022-12-01T17:13:59.833Z,5.30
2022-12-01T17:16:26.615Z,5.30
2022-12-01T17:18:53.368Z,5.40
2022-12-01T17:21:20.043Z,5.30
2022-12-01T17:23:46.784Z,5.30
2022-12-01T17:26:16.273Z,5.40
2022-12-01T17:28:43.438Z,5.40
2022-12-01T17:31:11.011Z,5.40
2022-12-01T17:33:37.997Z,5.40
2022-12-01T17:36:12.948Z,5.30
2022-12-01T17:38:42.768Z,5.20
2022-12-01T17:41:15.624Z,5.30
2022-12-01T17:43:42.553Z,5.30
2022-12-01T17:46:11.782Z,5.20
2022-12-01T17:48:40.643Z,5.20
2022-12-01T17:51:08.980Z,5.20
2022-12-01T17:53:36.598Z,5.20
2022-12-01T17:56:08.057Z,5.20
2022-12-01T17:58:35.221Z,5.20
2022-12-01T18:01:02.258Z,5.20
2022-12-01T18:03:29.055Z,5.20
2022-12-01T18:05:57.485Z,5.30
2022-12-01T18:08:25.497Z,5.50
2022-12-01T18:10:52.619Z,5.20
2022-12-01T18:13:21.335Z,5.20
2022-12-01T18:15:48.994Z,5.30
2022-12-01T18:18:15.853Z,5.40
2022-12-01T18:20:43.616Z,5.40
2022-12-01T18:23:11.307Z,5.30
2022-12-01T18:25:39.184Z,5.40
2022-12-01T18:28:06.720Z,5.40
2022-12-01T18:30:34.211Z,5.50
2022-12-01T18:33:01.031Z,5.50
2022-12-01T18:35:31.750Z,5.60
2022-12-01T18:37:58.987Z,5.50
2022-12-01T18:40:25.642Z,5.50
2022-12-01T18:42:52.312Z,5.50
2022-12-01T18:45:21.305Z,5.60
2022-12-01T18:47:48.319Z,5.60
2022-12-01T18:50:15.237Z,5.50
2022-12-01T18:52:41.922Z,5.50
2022-12-01T18:55:09.040Z,5.50
2022-12-01T18:57:35.667Z,5.50
2022-12-01T19:00:04.559Z,5.50
2022-12-01T19:02:31.444Z,5.60
2022-12-01T19:04:58.146Z,5.60
2022-12-01T19:07:29.571Z,5.50
2022-12-01T19:09:56.730Z,5.50
2022-12-01T19:12:23.442Z,5.50
2022-12-01T19:14:52.991Z,5.50
2022-12-01T19:17:20.087Z,5.50
2022-12-01T19:19:46.790Z,5.50
2022-12-01T19:22:13.604Z,5.40
2022-12-01T19:24:40.276Z,5.40
2022-12-01T19:27:07.145Z,5.50
2022-12-01T19:29:33.990Z,5.40
2022-12-01T19:32:01.590Z,5.20
2022-12-01T19:34:28.257Z,5.30
2022-12-01T19:36:56.710Z,5.30
2022-12-01T19:39:23.753Z,5.20
2022-12-01T19:41:50.494Z,5.20
2022-12-01T19:44:17.477Z,5.20
2022-12-01T19:46:44.949Z,5.30
2022-12-01T19:49:11.797Z,5.30
2022-12-01T19:51:39.809Z,5.20
2022-12-01T19:54:10.422Z,5.20
2022-12-01T19:56:37.140Z,5.10
2022-12-01T19:59:04.901Z,5.20
2022-12-01T20:01:31.719Z,5.20
2022-12-01T20:03:58.585Z,5.20
2022-12-01T20:06:30.055Z,5.20
2022-12-01T20:08:58.644Z,5.30
2022-12-01T20:11:25.784Z,5.40
2022-12-01T20:13:52.740Z,5.40
2022-12-01T20:16:24.916Z,5.20
2022-12-01T20:18:52.434Z,5.30
2022-12-01T20:21:21.841Z,5.30
2022-12-01T20:23:50.946Z,5.40
2022-12-01T20:26:19.439Z,5.40
2022-12-01T20:28:48.878Z,5.50
2022-12-01T20:31:22.685Z,5.40
2022-12-01T20:33:51.402Z,5.30
2022-12-01T20:36:18.872Z,5.10
2022-12-01T20:38:45.804Z,5.10
2022-12-01T20:41:12.870Z,5.30
2022-12-01T20:43:39.988Z,5.10
2022-12-01T20:46:07.276Z,5.20
2022-12-01T20:48:34.167Z,5.20
2022-12-01T20:51:02.541Z,5.30
2022-12-01T20:53:29.372Z,5.20
2022-12-01T20:55:56.230Z,5.20
2022-12-01T20:58:23.079Z,5.10
2022-12-01T21:00:49.879Z,5.00
2022-12-01T21:03:16.635Z,5.20
2022-12-01T21:05:44.146Z,5.20
2022-12-01T21:08:12.851Z,5.30
2022-12-01T21:10:42.562Z,5.30
2022-12-01T21:13:41.534Z,5.20
2022-12-01T21:16:26.807Z,5.30
2022-12-01T21:19:06.452Z,5.30
2022-12-01T21:21:38.198Z,5.30
2022-12-01T21:24:07.583Z,5.40
2022-12-01T21:26:36.873Z,5.30
2022-12-01T21:29:16.038Z,5.30
2022-12-01T21:31:43.291Z,5.30
2022-12-01T21:34:22.904Z,5.30
2022-12-01T21:36:52.466Z,5.40
2022-12-01T21:39:22.239Z,5.40
2022-12-01T21:41:51.724Z,5.40
2022-12-01T21:44:20.993Z,5.40
2022-12-01T21:46:53.101Z,5.40
2022-12-01T21:49:21.736Z,5.40
2022-12-01T21:51:51.700Z,5.50
2022-12-01T21:54:21.216Z,5.50
2022-12-01T21:56:49.255Z,5.40
2022-12-01T21:59:20.421Z,5.40
2022-12-01T22:01:50.719Z,5.50
2022-12-01T22:04:23.126Z,5.40
2022-12-01T22:06:53.460Z,5.40
2022-12-01T22:09:27.605Z,5.50
2022-12-01T22:12:00.093Z,5.40
2022-12-01T22:14:34.383Z,5.40
2022-12-01T22:17:07.023Z,5.30
2022-12-01T22:19:37.452Z,5.40
2022-12-01T22:22:15.651Z,5.30
2022-12-01T22:24:53.540Z,5.40
2022-12-01T22:27:35.094Z,5.40
2022-12-01T22:30:07.788Z,5.30
2022-12-01T22:32:46.180Z,5.40
2022-12-01T22:35:21.810Z,5.40
2022-12-01T22:37:54.461Z,5.20
2022-12-01T22:40:29.901Z,5.10
2022-12-01T22:42:58.576Z,5.30
2022-12-01T22:45:26.696Z,5.30
2022-12-01T22:48:01.916Z,5.30
2022-12-01T22:50:32.581Z,5.20
2022-12-01T22:53:06.266Z,5.30
2022-12-01T22:55:33.870Z,5.30
2022-12-01T22:58:20.867Z,5.30
2022-12-01T23:00:47.497Z,5.30
2022-12-01T23:03:14.400Z,5.30
2022-12-01T23:05:41.511Z,5.30
2022-12-01T23:08:19.938Z,5.40
2022-12-01T23:10:46.616Z,5.30
2022-12-01T23:13:16.702Z,5.30
2022-12-01T23:15:48.593Z,5.30
2022-12-01T23:18:24.242Z,5.30
2022-12-01T23:20:56.480Z,5.20
2022-12-01T23:23:32.300Z,5.20
2022-12-01T23:26:01.261Z,5.30
2022-12-01T23:28:30.199Z,5.20
2022-12-01T23:30:59.105Z,5.30
2022-12-01T23:33:28.965Z,5.30
2022-12-01T23:36:06.501Z,5.30
2022-12-01T23:38:42.275Z,5.20
2022-12-01T23:41:33.059Z,5.30
2022-12-01T23:44:04.209Z,5.30
2022-12-01T23:46:32.405Z,5.20
2022-12-01T23:49:02.719Z,5.30
2022-12-01T23:51:36.897Z,5.20
2022-12-01T23:54:27.738Z,5.30
2022-12-01T23:57:16.297Z,5.30
2022-12-01T23:59:43.665Z,5.30
